VJC844 VVPQ-RCTP
Flight info
| Callsign | VJC844 |
|---|---|
| Flight time | 3h 8m |
| Altitude | 33000 |
| Route | TUNPO2A TUNPO W17 TSH Q2 PATMA W12 PCA G221 BUNTA A1 IKELA/N0464F330 DCT MORTU DCT NOBAD DCT KAPLI J1 TNN TNN1A |
| Aircraft | A21N/M-SDE2E3FGHIRWXY/LB1 |
Departure
| Time | 2026-05-04 16:17 |
|---|---|
| Airport | Phú Quốc International Airport (VVPQ) |
Arrival
| Time | 2026-05-04 19:25 |
|---|---|
| Airport | Taiwan Taoyuan International Airport (RCTP) |
| Time | Latitude | Longitude | Altitude | Speed | Heading |
|---|---|---|---|---|---|
| 2026-05-04 16:07 | 10.16387 | 104.00096 | 33 ft | 0 kts | 185° |
| 2026-05-04 16:09 | 10.16401 | 104.00097 | 33 ft | 4 kts | 182° |
| 2026-05-04 16:10 | 10.16446 | 104.00094 | 33 ft | 4 kts | 166° |
| 2026-05-04 16:11 | 10.16492 | 104.00060 | 33 ft | 0 kts | 96° |
| 2026-05-04 16:13 | 10.16491 | 104.00065 | 33 ft | 4 kts | 96° |
| 2026-05-04 16:13 | 10.16504 | 104.00139 | 34 ft | 8 kts | 29° |
| 2026-05-04 16:14 | 10.16638 | 104.00158 | 34 ft | 12 kts | 5° |
| 2026-05-04 16:14 | 10.16713 | 104.00285 | 34 ft | 15 kts | 97° |
| 2026-05-04 16:15 | 10.16709 | 104.00650 | 35 ft | 20 kts | 1° |
| 2026-05-04 16:16 | 10.16862 | 104.00579 | 35 ft | 14 kts | 275° |
| 2026-05-04 16:16 | 10.17071 | 103.98249 | 292 ft | 171 kts | 280° |
| 2026-05-04 16:17 | 10.17302 | 103.95859 | 1549 ft | 175 kts | 276° |
| 2026-05-04 16:18 | 10.17719 | 103.91673 | 3059 ft | 220 kts | 275° |
| 2026-05-04 16:18 | 10.17696 | 103.90081 | 3599 ft | 232 kts | 256° |
| 2026-05-04 16:19 | 10.13913 | 103.87218 | 5159 ft | 256 kts | 180° |
| 2026-05-04 16:19 | 10.10304 | 103.86993 | 6646 ft | 261 kts | 178° |
| 2026-05-04 16:20 | 10.06049 | 103.89691 | 8268 ft | 270 kts | 105° |
| 2026-05-04 16:20 | 10.05635 | 103.93563 | 9540 ft | 280 kts | 93° |
| 2026-05-04 16:21 | 10.05120 | 103.99857 | 10696 ft | 325 kts | 95° |
| 2026-05-04 16:22 | 10.04661 | 104.04645 | 11141 ft | 360 kts | 95° |
| 2026-05-04 16:22 | 10.03879 | 104.12568 | 12384 ft | 384 kts | 95° |
| 2026-05-04 16:23 | 10.03071 | 104.20764 | 13912 ft | 394 kts | 95° |
| 2026-05-04 16:24 | 10.02016 | 104.31970 | 15603 ft | 405 kts | 91° |
| 2026-05-04 16:25 | 10.02704 | 104.37705 | 16421 ft | 411 kts | 81° |
| 2026-05-04 16:26 | 10.04651 | 104.49301 | 17959 ft | 422 kts | 81° |
| 2026-05-04 16:26 | 10.06119 | 104.58161 | 18961 ft | 430 kts | 78° |
| 2026-05-04 16:27 | 10.08045 | 104.63964 | 19655 ft | 435 kts | 70° |
| 2026-05-04 16:28 | 10.11295 | 104.72640 | 20673 ft | 442 kts | 70° |
| 2026-05-04 16:28 | 10.14547 | 104.81455 | 21767 ft | 449 kts | 70° |
| 2026-05-04 16:29 | 10.18999 | 104.93466 | 23183 ft | 460 kts | 70° |
| 2026-05-04 16:30 | 10.22393 | 105.02653 | 23958 ft | 468 kts | 70° |
| 2026-05-04 16:31 | 10.24681 | 105.08859 | 24466 ft | 471 kts | 70° |
| 2026-05-04 16:31 | 10.28157 | 105.18272 | 25213 ft | 476 kts | 70° |
| 2026-05-04 16:32 | 10.31648 | 105.27747 | 25905 ft | 481 kts | 70° |
| 2026-05-04 16:33 | 10.33999 | 105.34128 | 26444 ft | 481 kts | 70° |
| 2026-05-04 16:33 | 10.36340 | 105.40494 | 27023 ft | 480 kts | 70° |
| 2026-05-04 16:34 | 10.38660 | 105.46804 | 27602 ft | 479 kts | 70° |
| 2026-05-04 16:34 | 10.39825 | 105.49975 | 27886 ft | 478 kts | 70° |
| 2026-05-04 16:35 | 10.43317 | 105.59475 | 28736 ft | 476 kts | 70° |
| 2026-05-04 16:35 | 10.46768 | 105.68910 | 29606 ft | 474 kts | 70° |
| 2026-05-04 16:36 | 10.47905 | 105.72017 | 29880 ft | 474 kts | 70° |
| 2026-05-04 16:36 | 10.50207 | 105.78299 | 30368 ft | 473 kts | 70° |
| 2026-05-04 16:37 | 10.52507 | 105.84562 | 30809 ft | 473 kts | 70° |
| 2026-05-04 16:37 | 10.53658 | 105.87702 | 31030 ft | 473 kts | 70° |
| 2026-05-04 16:37 | 10.55934 | 105.93922 | 31465 ft | 473 kts | 70° |
| 2026-05-04 16:38 | 10.58225 | 106.00199 | 31917 ft | 473 kts | 70° |
| 2026-05-04 16:39 | 10.61656 | 106.09619 | 32552 ft | 473 kts | 70° |
| 2026-05-04 16:39 | 10.63947 | 106.15902 | 32921 ft | 473 kts | 70° |
| 2026-05-04 16:40 | 10.68511 | 106.28423 | 32897 ft | 472 kts | 70° |
| 2026-05-04 16:41 | 10.74199 | 106.44052 | 32898 ft | 472 kts | 70° |
| 2026-05-04 16:43 | 10.79873 | 106.59685 | 32906 ft | 472 kts | 70° |
| 2026-05-04 16:43 | 10.82920 | 106.65584 | 32899 ft | 473 kts | 51° |
| 2026-05-04 16:43 | 10.85263 | 106.67881 | 32910 ft | 474 kts | 38° |
| 2026-05-04 16:45 | 11.01269 | 106.79810 | 32897 ft | 475 kts | 37° |
| 2026-05-04 16:46 | 11.14506 | 106.89856 | 32893 ft | 475 kts | 37° |
| 2026-05-04 16:47 | 11.25099 | 106.97904 | 32894 ft | 475 kts | 37° |
| 2026-05-04 16:48 | 11.35697 | 107.05953 | 32899 ft | 476 kts | 37° |
| 2026-05-04 16:49 | 11.46281 | 107.14028 | 32903 ft | 476 kts | 37° |
| 2026-05-04 16:50 | 11.56885 | 107.22119 | 32914 ft | 474 kts | 37° |
| 2026-05-04 16:51 | 11.64780 | 107.28154 | 32915 ft | 474 kts | 37° |
| 2026-05-04 16:52 | 11.75337 | 107.36238 | 32932 ft | 474 kts | 37° |
| 2026-05-04 16:53 | 11.83226 | 107.42282 | 32942 ft | 475 kts | 36° |
| 2026-05-04 16:54 | 11.93808 | 107.50397 | 32960 ft | 474 kts | 36° |
| 2026-05-04 16:55 | 12.09609 | 107.62521 | 32967 ft | 475 kts | 36° |
| 2026-05-04 16:56 | 12.21922 | 107.71988 | 32970 ft | 475 kts | 36° |
| 2026-05-04 16:57 | 12.29852 | 107.78092 | 32967 ft | 475 kts | 36° |
| 2026-05-04 16:58 | 12.39899 | 107.86920 | 32964 ft | 476 kts | 42° |
| 2026-05-04 17:00 | 12.54448 | 108.00726 | 32960 ft | 479 kts | 41° |
| 2026-05-04 17:01 | 12.66730 | 108.12293 | 32971 ft | 481 kts | 37° |
| 2026-05-04 17:02 | 12.77658 | 108.20111 | 32967 ft | 478 kts | 33° |
| 2026-05-04 17:03 | 12.85855 | 108.25921 | 32972 ft | 478 kts | 33° |
| 2026-05-04 17:03 | 12.94062 | 108.31749 | 32970 ft | 478 kts | 33° |
| 2026-05-04 17:04 | 13.04991 | 108.39518 | 32969 ft | 478 kts | 33° |
| 2026-05-04 17:05 | 13.15941 | 108.47313 | 32976 ft | 479 kts | 33° |
| 2026-05-04 17:06 | 13.24090 | 108.53121 | 32966 ft | 475 kts | 33° |
| 2026-05-04 17:07 | 13.31344 | 108.58291 | 32969 ft | 476 kts | 33° |
| 2026-05-04 17:07 | 13.37687 | 108.62807 | 32972 ft | 476 kts | 33° |
| 2026-05-04 17:08 | 13.45858 | 108.68630 | 32977 ft | 476 kts | 33° |
| 2026-05-04 17:09 | 13.51294 | 108.72520 | 32970 ft | 476 kts | 33° |
| 2026-05-04 17:09 | 13.56725 | 108.76387 | 32983 ft | 476 kts | 33° |
| 2026-05-04 17:10 | 13.70332 | 108.86093 | 32987 ft | 477 kts | 33° |
| 2026-05-04 17:11 | 13.75785 | 108.89998 | 32970 ft | 477 kts | 33° |
| 2026-05-04 17:12 | 13.83925 | 108.95822 | 32985 ft | 476 kts | 33° |
| 2026-05-04 17:13 | 13.98084 | 109.04499 | 32962 ft | 472 kts | 11° |
| 2026-05-04 17:14 | 14.11049 | 109.06126 | 32972 ft | 470 kts | 5° |
| 2026-05-04 17:15 | 14.20765 | 109.07300 | 32969 ft | 469 kts | 5° |
| 2026-05-04 17:16 | 14.33763 | 109.08879 | 32975 ft | 469 kts | 5° |
| 2026-05-04 17:17 | 14.46705 | 109.10462 | 32977 ft | 469 kts | 5° |
| 2026-05-04 17:18 | 14.59661 | 109.12036 | 32962 ft | 470 kts | 5° |
| 2026-05-04 17:19 | 14.72706 | 109.13627 | 32970 ft | 472 kts | 5° |
| 2026-05-04 17:20 | 14.85711 | 109.15215 | 32970 ft | 470 kts | 5° |
| 2026-05-04 17:20 | 14.95430 | 109.16403 | 32961 ft | 470 kts | 5° |
| 2026-05-04 17:21 | 15.08441 | 109.17996 | 32961 ft | 470 kts | 5° |
| 2026-05-04 17:22 | 15.14938 | 109.18796 | 32966 ft | 470 kts | 4° |
| 2026-05-04 17:23 | 15.27845 | 109.20377 | 32961 ft | 468 kts | 5° |
| 2026-05-04 17:24 | 15.37564 | 109.21567 | 32972 ft | 468 kts | 5° |
| 2026-05-04 17:25 | 15.50511 | 109.23157 | 32964 ft | 469 kts | 5° |
| 2026-05-04 17:26 | 15.63476 | 109.24752 | 32963 ft | 469 kts | 5° |
| 2026-05-04 17:27 | 15.79652 | 109.26733 | 32960 ft | 469 kts | 5° |
| 2026-05-04 17:28 | 15.92661 | 109.28332 | 32959 ft | 471 kts | 4° |
| 2026-05-04 17:29 | 16.12165 | 109.30722 | 32959 ft | 471 kts | 4° |
| 2026-05-04 17:31 | 16.28475 | 109.32726 | 32962 ft | 473 kts | 4° |
| 2026-05-04 17:32 | 16.44800 | 109.34738 | 32961 ft | 473 kts | 4° |
| 2026-05-04 17:33 | 16.57941 | 109.36359 | 32963 ft | 475 kts | 4° |
| 2026-05-04 17:34 | 16.71048 | 109.37977 | 32961 ft | 475 kts | 4° |
| 2026-05-04 17:35 | 16.80755 | 109.39971 | 32968 ft | 481 kts | 21° |
| 2026-05-04 17:35 | 16.86180 | 109.44065 | 32966 ft | 488 kts | 46° |
| 2026-05-04 17:36 | 16.90113 | 109.49857 | 32966 ft | 492 kts | 56° |
| 2026-05-04 17:36 | 16.93892 | 109.55820 | 32962 ft | 492 kts | 55° |
| 2026-05-04 17:37 | 16.97693 | 109.61729 | 32963 ft | 491 kts | 55° |
| 2026-05-04 17:37 | 17.01525 | 109.67665 | 32961 ft | 491 kts | 55° |
| 2026-05-04 17:38 | 17.05359 | 109.73602 | 32964 ft | 491 kts | 54° |
| 2026-05-04 17:38 | 17.09151 | 109.79474 | 32972 ft | 491 kts | 54° |
| 2026-05-04 17:39 | 17.14898 | 109.88398 | 32963 ft | 492 kts | 54° |
| 2026-05-04 17:39 | 17.18697 | 109.94313 | 32965 ft | 492 kts | 54° |
| 2026-05-04 17:40 | 17.22520 | 110.00266 | 32965 ft | 492 kts | 54° |
| 2026-05-04 17:40 | 17.26346 | 110.06222 | 32965 ft | 492 kts | 54° |
| 2026-05-04 17:41 | 17.30138 | 110.12136 | 32961 ft | 492 kts | 54° |
| 2026-05-04 17:41 | 17.33955 | 110.18091 | 32961 ft | 492 kts | 54° |
| 2026-05-04 17:42 | 17.37124 | 110.23037 | 32972 ft | 492 kts | 54° |
| 2026-05-04 17:42 | 17.40933 | 110.29012 | 32965 ft | 493 kts | 54° |
| 2026-05-04 17:43 | 17.44774 | 110.34967 | 32964 ft | 493 kts | 54° |
| 2026-05-04 17:43 | 17.48619 | 110.40877 | 32965 ft | 493 kts | 54° |
| 2026-05-04 17:44 | 17.52491 | 110.46825 | 32963 ft | 493 kts | 54° |
| 2026-05-04 17:44 | 17.56326 | 110.52728 | 32962 ft | 492 kts | 54° |
| 2026-05-04 17:45 | 17.60177 | 110.58673 | 32962 ft | 492 kts | 54° |
| 2026-05-04 17:45 | 17.63999 | 110.64589 | 32962 ft | 492 kts | 54° |
| 2026-05-04 17:46 | 17.67841 | 110.70539 | 32965 ft | 492 kts | 54° |
| 2026-05-04 17:46 | 17.71693 | 110.76497 | 32964 ft | 492 kts | 54° |
| 2026-05-04 17:47 | 17.75509 | 110.82408 | 32962 ft | 491 kts | 54° |
| 2026-05-04 17:47 | 17.79343 | 110.88358 | 32964 ft | 491 kts | 54° |
| 2026-05-04 17:48 | 17.83177 | 110.94304 | 32965 ft | 491 kts | 54° |
| 2026-05-04 17:48 | 17.86988 | 111.00227 | 32965 ft | 491 kts | 54° |
| 2026-05-04 17:49 | 17.90811 | 111.06180 | 32961 ft | 491 kts | 54° |
| 2026-05-04 17:49 | 17.94641 | 111.12142 | 32967 ft | 493 kts | 54° |
| 2026-05-04 17:50 | 17.98454 | 111.18082 | 32965 ft | 493 kts | 54° |
| 2026-05-04 17:50 | 18.02284 | 111.24056 | 32964 ft | 493 kts | 54° |
| 2026-05-04 17:51 | 18.06107 | 111.30042 | 32965 ft | 492 kts | 54° |
| 2026-05-04 17:51 | 18.09915 | 111.35983 | 32965 ft | 492 kts | 54° |
| 2026-05-04 17:52 | 18.13734 | 111.41949 | 32963 ft | 492 kts | 54° |
| 2026-05-04 17:52 | 18.17530 | 111.47894 | 32962 ft | 492 kts | 54° |
| 2026-05-04 17:53 | 18.21351 | 111.53888 | 32966 ft | 493 kts | 53° |
| 2026-05-04 17:53 | 18.25176 | 111.59909 | 32961 ft | 494 kts | 53° |
| 2026-05-04 17:54 | 18.28972 | 111.65882 | 32961 ft | 494 kts | 54° |
| 2026-05-04 17:54 | 18.32806 | 111.71898 | 32962 ft | 493 kts | 53° |
| 2026-05-04 17:55 | 18.36595 | 111.77890 | 32965 ft | 494 kts | 54° |
| 2026-05-04 17:55 | 18.40416 | 111.83906 | 32963 ft | 493 kts | 53° |
| 2026-05-04 17:56 | 18.44233 | 111.89920 | 32962 ft | 493 kts | 53° |
| 2026-05-04 17:56 | 18.48032 | 111.95897 | 32965 ft | 493 kts | 53° |
| 2026-05-04 17:57 | 18.51846 | 112.01925 | 32961 ft | 494 kts | 53° |
| 2026-05-04 17:57 | 18.55666 | 112.07953 | 32963 ft | 494 kts | 53° |
| 2026-05-04 17:58 | 18.59487 | 112.13990 | 32959 ft | 494 kts | 53° |
| 2026-05-04 17:58 | 18.63272 | 112.19979 | 32957 ft | 493 kts | 53° |
| 2026-05-04 17:59 | 18.66944 | 112.26119 | 32955 ft | 495 kts | 59° |
| 2026-05-04 18:00 | 18.71738 | 112.35765 | 32958 ft | 496 kts | 60° |
| 2026-05-04 18:00 | 18.74942 | 112.42219 | 32963 ft | 496 kts | 60° |
| 2026-05-04 18:01 | 18.78145 | 112.48668 | 32959 ft | 494 kts | 60° |
| 2026-05-04 18:01 | 18.81328 | 112.55053 | 32958 ft | 493 kts | 60° |
| 2026-05-04 18:02 | 18.86113 | 112.64700 | 32959 ft | 494 kts | 60° |
| 2026-05-04 18:02 | 18.89288 | 112.71084 | 32958 ft | 493 kts | 60° |
| 2026-05-04 18:03 | 18.92472 | 112.77505 | 32956 ft | 493 kts | 60° |
| 2026-05-04 18:03 | 18.95648 | 112.83932 | 32955 ft | 492 kts | 60° |
| 2026-05-04 18:04 | 18.98800 | 112.90321 | 32967 ft | 493 kts | 60° |
| 2026-05-04 18:05 | 19.03560 | 112.99989 | 32953 ft | 494 kts | 60° |
| 2026-05-04 18:05 | 19.06745 | 113.06451 | 32953 ft | 494 kts | 60° |
| 2026-05-04 18:06 | 19.11496 | 113.16114 | 32959 ft | 494 kts | 60° |
| 2026-05-04 18:06 | 19.14666 | 113.22567 | 32954 ft | 494 kts | 60° |
| 2026-05-04 18:07 | 19.17809 | 113.28976 | 32953 ft | 494 kts | 60° |
| 2026-05-04 18:07 | 19.20978 | 113.35452 | 32957 ft | 494 kts | 60° |
| 2026-05-04 18:08 | 19.24130 | 113.41866 | 32958 ft | 495 kts | 60° |
| 2026-05-04 18:08 | 19.27303 | 113.48361 | 32956 ft | 495 kts | 60° |
| 2026-05-04 18:09 | 19.33605 | 113.61314 | 32962 ft | 495 kts | 60° |
| 2026-05-04 18:10 | 19.36763 | 113.67816 | 32956 ft | 495 kts | 60° |
| 2026-05-04 18:10 | 19.39922 | 113.74307 | 32953 ft | 495 kts | 60° |
| 2026-05-04 18:11 | 19.43070 | 113.80816 | 32960 ft | 496 kts | 60° |
| 2026-05-04 18:11 | 19.46207 | 113.87286 | 32945 ft | 496 kts | 60° |
| 2026-05-04 18:12 | 19.49402 | 113.93797 | 32960 ft | 498 kts | 60° |
| 2026-05-04 18:12 | 19.52593 | 114.00336 | 32956 ft | 499 kts | 60° |
| 2026-05-04 18:13 | 19.55751 | 114.06882 | 32954 ft | 498 kts | 60° |
| 2026-05-04 18:14 | 19.60495 | 114.16692 | 32969 ft | 499 kts | 60° |
| 2026-05-04 18:14 | 19.63650 | 114.23229 | 32956 ft | 499 kts | 60° |
| 2026-05-04 18:15 | 19.69983 | 114.36373 | 32966 ft | 499 kts | 60° |
| 2026-05-04 18:16 | 19.73136 | 114.42921 | 32968 ft | 503 kts | 60° |
| 2026-05-04 18:16 | 19.76324 | 114.49569 | 32964 ft | 504 kts | 60° |
| 2026-05-04 18:17 | 19.81086 | 114.59492 | 32959 ft | 504 kts | 60° |
| 2026-05-04 18:18 | 19.85815 | 114.69423 | 32960 ft | 504 kts | 61° |
| 2026-05-04 18:18 | 19.89002 | 114.76073 | 32960 ft | 504 kts | 60° |
| 2026-05-04 18:19 | 19.93739 | 114.86001 | 32960 ft | 504 kts | 60° |
| 2026-05-04 18:19 | 19.96921 | 114.92667 | 32967 ft | 506 kts | 60° |
| 2026-05-04 18:20 | 20.00090 | 114.99320 | 32964 ft | 506 kts | 60° |
| 2026-05-04 18:20 | 20.03257 | 115.05989 | 32961 ft | 507 kts | 60° |
| 2026-05-04 18:21 | 20.06437 | 115.12676 | 32957 ft | 507 kts | 60° |
| 2026-05-04 18:21 | 20.09621 | 115.19387 | 32960 ft | 507 kts | 60° |
| 2026-05-04 18:22 | 20.12797 | 115.26092 | 32958 ft | 507 kts | 60° |
| 2026-05-04 18:22 | 20.15949 | 115.32764 | 32964 ft | 507 kts | 60° |
| 2026-05-04 18:23 | 20.19132 | 115.39496 | 32962 ft | 507 kts | 61° |
| 2026-05-04 18:23 | 20.22281 | 115.46176 | 32965 ft | 507 kts | 61° |
| 2026-05-04 18:24 | 20.25446 | 115.52898 | 32965 ft | 507 kts | 61° |
| 2026-05-04 18:24 | 20.28603 | 115.59626 | 32964 ft | 507 kts | 61° |
| 2026-05-04 18:25 | 20.31753 | 115.66320 | 32965 ft | 508 kts | 61° |
| 2026-05-04 18:25 | 20.34907 | 115.73054 | 32968 ft | 508 kts | 61° |
| 2026-05-04 18:26 | 20.38065 | 115.79805 | 32964 ft | 508 kts | 61° |
| 2026-05-04 18:26 | 20.41211 | 115.86516 | 32983 ft | 508 kts | 61° |
| 2026-05-04 18:27 | 20.44371 | 115.93274 | 32970 ft | 509 kts | 60° |
| 2026-05-04 18:27 | 20.47527 | 115.99999 | 32966 ft | 509 kts | 61° |
| 2026-05-04 18:28 | 20.50676 | 116.06760 | 32969 ft | 509 kts | 61° |
| 2026-05-04 18:28 | 20.53852 | 116.13520 | 32970 ft | 509 kts | 61° |
| 2026-05-04 18:29 | 20.56999 | 116.20292 | 32970 ft | 509 kts | 61° |
| 2026-05-04 18:29 | 20.60136 | 116.27032 | 32967 ft | 509 kts | 61° |
| 2026-05-04 18:30 | 20.64849 | 116.37169 | 32977 ft | 510 kts | 61° |
| 2026-05-04 18:31 | 20.67997 | 116.43967 | 32974 ft | 510 kts | 61° |
| 2026-05-04 18:31 | 20.71144 | 116.50768 | 32973 ft | 510 kts | 61° |
| 2026-05-04 18:32 | 20.73767 | 116.56434 | 32968 ft | 510 kts | 62° |
| 2026-05-04 18:32 | 20.76909 | 116.63240 | 32972 ft | 510 kts | 61° |
| 2026-05-04 18:33 | 20.80041 | 116.70009 | 32971 ft | 510 kts | 62° |
| 2026-05-04 18:33 | 20.83179 | 116.76826 | 32970 ft | 510 kts | 62° |
| 2026-05-04 18:34 | 20.86300 | 116.83602 | 32982 ft | 511 kts | 61° |
| 2026-05-04 18:34 | 20.89441 | 116.90434 | 32969 ft | 511 kts | 62° |
| 2026-05-04 18:35 | 20.92560 | 116.97236 | 32967 ft | 511 kts | 62° |
| 2026-05-04 18:35 | 20.95683 | 117.04085 | 32973 ft | 511 kts | 62° |
| 2026-05-04 18:36 | 20.98816 | 117.10929 | 32975 ft | 511 kts | 62° |
| 2026-05-04 18:36 | 21.01928 | 117.17724 | 32962 ft | 511 kts | 62° |
| 2026-05-04 18:37 | 21.05048 | 117.24570 | 32972 ft | 511 kts | 62° |
| 2026-05-04 18:37 | 21.08174 | 117.31424 | 32984 ft | 513 kts | 62° |
| 2026-05-04 18:38 | 21.11299 | 117.38300 | 32981 ft | 513 kts | 62° |
| 2026-05-04 18:38 | 21.14418 | 117.45131 | 32973 ft | 513 kts | 62° |
| 2026-05-04 18:39 | 21.17922 | 117.51759 | 32979 ft | 507 kts | 50° |
| 2026-05-04 18:39 | 21.22285 | 117.57655 | 32976 ft | 506 kts | 47° |
| 2026-05-04 18:40 | 21.26695 | 117.63562 | 32973 ft | 507 kts | 48° |
| 2026-05-04 18:40 | 21.31087 | 117.69480 | 33002 ft | 512 kts | 48° |
| 2026-05-04 18:41 | 21.35543 | 117.75459 | 32970 ft | 513 kts | 48° |
| 2026-05-04 18:41 | 21.39992 | 117.81455 | 32990 ft | 513 kts | 47° |
| 2026-05-04 18:42 | 21.44452 | 117.87452 | 32995 ft | 513 kts | 48° |
| 2026-05-04 18:42 | 21.48864 | 117.93420 | 32997 ft | 513 kts | 48° |
| 2026-05-04 18:43 | 21.53310 | 117.99423 | 33008 ft | 513 kts | 47° |
| 2026-05-04 18:43 | 21.57768 | 118.05435 | 32997 ft | 514 kts | 47° |
| 2026-05-04 18:44 | 21.62222 | 118.11451 | 32990 ft | 514 kts | 48° |
| 2026-05-04 18:44 | 21.66656 | 118.17479 | 32995 ft | 514 kts | 48° |
| 2026-05-04 18:45 | 21.71049 | 118.23483 | 33013 ft | 514 kts | 48° |
| 2026-05-04 18:45 | 21.75496 | 118.29516 | 32993 ft | 514 kts | 48° |
| 2026-05-04 18:46 | 21.79958 | 118.35568 | 32999 ft | 516 kts | 48° |
| 2026-05-04 18:46 | 21.84369 | 118.41609 | 32988 ft | 516 kts | 48° |
| 2026-05-04 18:47 | 21.88824 | 118.47700 | 32995 ft | 516 kts | 48° |
| 2026-05-04 18:47 | 21.93280 | 118.53782 | 32994 ft | 516 kts | 48° |
| 2026-05-04 18:48 | 21.97695 | 118.59807 | 32993 ft | 515 kts | 48° |
| 2026-05-04 18:48 | 22.02140 | 118.65889 | 33004 ft | 517 kts | 47° |
| 2026-05-04 18:49 | 22.06606 | 118.71972 | 33000 ft | 516 kts | 48° |
| 2026-05-04 18:49 | 22.11028 | 118.78040 | 32999 ft | 516 kts | 48° |
| 2026-05-04 18:50 | 22.15459 | 118.84119 | 32994 ft | 517 kts | 48° |
| 2026-05-04 18:50 | 22.19905 | 118.90234 | 32993 ft | 516 kts | 48° |
| 2026-05-04 18:51 | 22.24335 | 118.96361 | 33002 ft | 517 kts | 48° |
| 2026-05-04 18:51 | 22.28761 | 119.02451 | 32995 ft | 518 kts | 48° |
| 2026-05-04 18:52 | 22.33203 | 119.08574 | 32992 ft | 518 kts | 48° |
| 2026-05-04 18:52 | 22.37615 | 119.14681 | 32991 ft | 517 kts | 48° |
| 2026-05-04 18:53 | 22.42020 | 119.20792 | 32996 ft | 516 kts | 48° |
| 2026-05-04 18:53 | 22.46440 | 119.26923 | 32983 ft | 516 kts | 48° |
| 2026-05-04 18:54 | 22.50864 | 119.33037 | 32996 ft | 515 kts | 48° |
| 2026-05-04 18:54 | 22.55263 | 119.39119 | 32991 ft | 515 kts | 48° |
| 2026-05-04 18:55 | 22.59669 | 119.45234 | 32989 ft | 515 kts | 48° |
| 2026-05-04 18:55 | 22.66278 | 119.54432 | 32980 ft | 514 kts | 49° |
| 2026-05-04 18:56 | 22.70652 | 119.60526 | 32994 ft | 516 kts | 48° |
| 2026-05-04 18:56 | 22.75069 | 119.66678 | 32990 ft | 516 kts | 48° |
| 2026-05-04 18:57 | 22.79475 | 119.72835 | 32989 ft | 516 kts | 48° |
| 2026-05-04 18:57 | 22.83846 | 119.78966 | 32987 ft | 516 kts | 48° |
| 2026-05-04 18:58 | 22.88246 | 119.85124 | 32979 ft | 514 kts | 49° |
| 2026-05-04 18:58 | 22.92634 | 119.91289 | 32989 ft | 517 kts | 48° |
| 2026-05-04 18:59 | 22.97022 | 119.97432 | 32989 ft | 517 kts | 49° |
| 2026-05-04 18:59 | 23.01427 | 120.03617 | 33009 ft | 517 kts | 49° |
| 2026-05-04 19:00 | 23.05829 | 120.09815 | 33017 ft | 518 kts | 49° |
| 2026-05-04 19:00 | 23.10349 | 120.15894 | 33027 ft | 512 kts | 40° |
| 2026-05-04 19:01 | 23.13021 | 120.18341 | 33021 ft | 505 kts | 28° |
| 2026-05-04 19:01 | 23.16065 | 120.20165 | 33018 ft | 494 kts | 15° |
| 2026-05-04 19:01 | 23.19296 | 120.21284 | 33015 ft | 483 kts | 4° |
| 2026-05-04 19:01 | 23.22598 | 120.21797 | 33009 ft | 475 kts | 358° |
| 2026-05-04 19:02 | 23.29186 | 120.22477 | 33006 ft | 475 kts | 357° |
| 2026-05-04 19:02 | 23.35742 | 120.23222 | 33005 ft | 476 kts | 358° |
| 2026-05-04 19:03 | 23.42362 | 120.24034 | 33013 ft | 477 kts | 358° |
| 2026-05-04 19:03 | 23.45642 | 120.24436 | 32664 ft | 476 kts | 358° |
| 2026-05-04 19:03 | 23.48951 | 120.24817 | 32368 ft | 480 kts | 358° |
| 2026-05-04 19:04 | 23.52278 | 120.25211 | 32115 ft | 482 kts | 358° |
| 2026-05-04 19:04 | 23.55579 | 120.25603 | 31864 ft | 484 kts | 358° |
| 2026-05-04 19:04 | 23.58921 | 120.25996 | 31462 ft | 480 kts | 358° |
| 2026-05-04 19:04 | 23.62240 | 120.26399 | 30818 ft | 478 kts | 358° |
| 2026-05-04 19:05 | 23.65545 | 120.26808 | 30143 ft | 477 kts | 358° |
| 2026-05-04 19:05 | 23.68853 | 120.27226 | 29261 ft | 479 kts | 0° |
| 2026-05-04 19:05 | 23.72110 | 120.27966 | 28412 ft | 489 kts | 9° |
| 2026-05-04 19:05 | 23.75386 | 120.29056 | 27598 ft | 492 kts | 11° |
| 2026-05-04 19:06 | 23.78660 | 120.30198 | 26845 ft | 492 kts | 12° |
| 2026-05-04 19:06 | 23.81926 | 120.31342 | 26161 ft | 491 kts | 12° |
| 2026-05-04 19:06 | 23.85144 | 120.32463 | 25494 ft | 489 kts | 12° |
| 2026-05-04 19:06 | 23.88377 | 120.33584 | 24870 ft | 486 kts | 12° |
| 2026-05-04 19:07 | 23.91599 | 120.34700 | 24235 ft | 483 kts | 12° |
| 2026-05-04 19:07 | 23.94790 | 120.35805 | 23609 ft | 478 kts | 12° |
| 2026-05-04 19:07 | 23.97953 | 120.36901 | 22887 ft | 473 kts | 12° |
| 2026-05-04 19:07 | 24.01038 | 120.37971 | 22202 ft | 467 kts | 12° |
| 2026-05-04 19:08 | 24.04122 | 120.39040 | 21538 ft | 462 kts | 12° |
| 2026-05-04 19:08 | 24.07173 | 120.40098 | 20877 ft | 456 kts | 13° |
| 2026-05-04 19:08 | 24.10185 | 120.41143 | 20273 ft | 450 kts | 13° |
| 2026-05-04 19:08 | 24.13126 | 120.42165 | 19693 ft | 444 kts | 13° |
| 2026-05-04 19:09 | 24.16065 | 120.43186 | 19137 ft | 439 kts | 12° |
| 2026-05-04 19:09 | 24.18984 | 120.44199 | 18587 ft | 438 kts | 13° |
| 2026-05-04 19:09 | 24.21884 | 120.45205 | 18028 ft | 437 kts | 13° |
| 2026-05-04 19:09 | 24.24788 | 120.46167 | 17422 ft | 433 kts | 10° |
| 2026-05-04 19:10 | 24.27670 | 120.46991 | 16855 ft | 431 kts | 10° |
| 2026-05-04 19:10 | 24.30557 | 120.47869 | 16294 ft | 430 kts | 11° |
| 2026-05-04 19:10 | 24.33427 | 120.48811 | 15738 ft | 429 kts | 12° |
| 2026-05-04 19:10 | 24.36282 | 120.49788 | 15226 ft | 428 kts | 13° |
| 2026-05-04 19:11 | 24.39088 | 120.50762 | 14698 ft | 427 kts | 13° |
| 2026-05-04 19:11 | 24.41917 | 120.51747 | 14163 ft | 426 kts | 13° |
| 2026-05-04 19:11 | 24.44749 | 120.52736 | 13604 ft | 425 kts | 13° |
| 2026-05-04 19:11 | 24.47581 | 120.53724 | 13030 ft | 424 kts | 14° |
| 2026-05-04 19:12 | 24.50369 | 120.54699 | 12477 ft | 416 kts | 14° |
| 2026-05-04 19:12 | 24.55723 | 120.56758 | 11483 ft | 402 kts | 17° |
| 2026-05-04 19:12 | 24.58307 | 120.57796 | 11209 ft | 389 kts | 15° |
| 2026-05-04 19:13 | 24.60829 | 120.58744 | 10995 ft | 375 kts | 14° |
| 2026-05-04 19:13 | 24.63271 | 120.59624 | 10815 ft | 362 kts | 14° |
| 2026-05-04 19:13 | 24.65595 | 120.60447 | 10653 ft | 349 kts | 14° |
| 2026-05-04 19:13 | 24.67836 | 120.61385 | 10504 ft | 341 kts | 26° |
| 2026-05-04 19:14 | 24.69698 | 120.62938 | 10355 ft | 332 kts | 40° |
| 2026-05-04 19:14 | 24.71367 | 120.64656 | 10139 ft | 324 kts | 42° |
| 2026-05-04 19:14 | 24.73007 | 120.66362 | 9685 ft | 324 kts | 41° |
| 2026-05-04 19:14 | 24.74636 | 120.68073 | 9343 ft | 321 kts | 41° |
| 2026-05-04 19:15 | 24.76245 | 120.69740 | 8982 ft | 317 kts | 41° |
| 2026-05-04 19:15 | 24.77864 | 120.71377 | 8588 ft | 315 kts | 41° |
| 2026-05-04 19:15 | 24.79459 | 120.72971 | 8254 ft | 312 kts | 40° |
| 2026-05-04 19:15 | 24.81090 | 120.74588 | 7885 ft | 310 kts | 40° |
| 2026-05-04 19:16 | 24.82666 | 120.76147 | 7561 ft | 306 kts | 40° |
| 2026-05-04 19:16 | 24.84253 | 120.77712 | 7159 ft | 306 kts | 41° |
| 2026-05-04 19:16 | 24.85835 | 120.79272 | 6843 ft | 302 kts | 41° |
| 2026-05-04 19:16 | 24.87391 | 120.80805 | 6429 ft | 300 kts | 41° |
| 2026-05-04 19:17 | 24.88919 | 120.82313 | 6015 ft | 296 kts | 41° |
| 2026-05-04 19:17 | 24.90437 | 120.83823 | 5623 ft | 291 kts | 44° |
| 2026-05-04 19:17 | 24.91611 | 120.85589 | 5277 ft | 285 kts | 70° |
| 2026-05-04 19:17 | 24.91932 | 120.87715 | 4949 ft | 281 kts | 93° |
| 2026-05-04 19:18 | 24.91815 | 120.89858 | 4674 ft | 276 kts | 97° |
| 2026-05-04 19:18 | 24.91684 | 120.91914 | 4510 ft | 268 kts | 95° |
| 2026-05-04 19:18 | 24.91569 | 120.93924 | 4390 ft | 256 kts | 95° |
| 2026-05-04 19:18 | 24.91469 | 120.95836 | 4431 ft | 247 kts | 95° |
| 2026-05-04 19:19 | 24.91372 | 120.97707 | 4416 ft | 239 kts | 96° |
| 2026-05-04 19:19 | 24.91286 | 120.99490 | 4434 ft | 228 kts | 96° |
| 2026-05-04 19:19 | 24.91292 | 121.00644 | 4416 ft | 229 kts | 84° |
| 2026-05-04 19:19 | 24.91874 | 121.02269 | 4175 ft | 230 kts | 56° |
| 2026-05-04 19:20 | 24.93243 | 121.04047 | 3848 ft | 226 kts | 45° |
| 2026-05-04 19:20 | 24.94307 | 121.05234 | 3730 ft | 210 kts | 45° |
| 2026-05-04 19:20 | 24.94963 | 121.06000 | 3610 ft | 204 kts | 47° |
| 2026-05-04 19:20 | 24.95884 | 121.07150 | 3395 ft | 196 kts | 48° |
| 2026-05-04 19:21 | 24.96764 | 121.08262 | 3165 ft | 190 kts | 48° |
| 2026-05-04 19:21 | 24.97620 | 121.09345 | 2911 ft | 183 kts | 48° |
| 2026-05-04 19:21 | 24.98441 | 121.10385 | 2690 ft | 176 kts | 47° |
| 2026-05-04 19:21 | 24.99229 | 121.11382 | 2455 ft | 170 kts | 47° |
| 2026-05-04 19:22 | 24.99997 | 121.12353 | 2243 ft | 169 kts | 47° |
| 2026-05-04 19:22 | 25.00769 | 121.13331 | 2025 ft | 165 kts | 48° |
| 2026-05-04 19:22 | 25.01527 | 121.14290 | 1812 ft | 166 kts | 48° |
| 2026-05-04 19:22 | 25.02267 | 121.15229 | 1632 ft | 164 kts | 48° |
| 2026-05-04 19:23 | 25.02964 | 121.16111 | 1433 ft | 144 kts | 48° |
| 2026-05-04 19:23 | 25.03613 | 121.16933 | 1226 ft | 141 kts | 49° |
| 2026-05-04 19:23 | 25.04255 | 121.17746 | 1035 ft | 139 kts | 49° |
| 2026-05-04 19:23 | 25.04889 | 121.18549 | 867 ft | 137 kts | 50° |
| 2026-05-04 19:24 | 25.05515 | 121.19318 | 692 ft | 133 kts | 51° |
| 2026-05-04 19:24 | 25.06109 | 121.20092 | 501 ft | 131 kts | 51° |
| 2026-05-04 19:24 | 25.06699 | 121.20803 | 332 ft | 125 kts | 55° |
| 2026-05-04 19:24 | 25.07254 | 121.21556 | 172 ft | 129 kts | 54° |
| 2026-05-04 19:25 | 25.07825 | 121.22278 | 108 ft | 116 kts | 51° |
| 2026-05-04 19:25 | 25.08223 | 121.22786 | 103 ft | 58 kts | 48° |
| 2026-05-04 19:25 | 25.08389 | 121.23014 | 105 ft | 33 kts | 61° |
| 2026-05-04 19:25 | 25.08453 | 121.23261 | 105 ft | 27 kts | 81° |
| 2026-05-04 19:26 | 25.08480 | 121.23403 | 106 ft | 14 kts | 77° |
| 2026-05-04 19:26 | 25.08479 | 121.23472 | 105 ft | 6 kts | 146° |
| 2026-05-04 19:26 | 25.08435 | 121.23498 | 106 ft | 8 kts | 154° |
| 2026-05-04 19:26 | 25.08379 | 121.23473 | 106 ft | 10 kts | 226° |
| 2026-05-04 19:27 | 25.08314 | 121.23477 | 106 ft | 12 kts | 141° |
| 2026-05-04 19:27 | 25.08270 | 121.23521 | 106 ft | 4 kts | 139° |
| 2026-05-04 19:27 | 25.08251 | 121.23539 | 106 ft | 3 kts | 139° |
| 2026-05-04 19:27 | 25.08249 | 121.23541 | 106 ft | 0 kts | 139° |